createdAt,value
2019-02-06T00:02:19.154Z,13.17
2019-02-06T00:04:48.155Z,10.83
2019-02-06T00:07:17.214Z,9.17
2019-02-06T00:09:46.240Z,8.80
2019-02-06T00:12:15.229Z,8.60
2019-02-06T00:14:44.414Z,10.53
2019-02-06T00:17:13.452Z,9.70
2019-02-06T00:19:42.447Z,8.57
2019-02-06T00:22:11.487Z,8.33
2019-02-06T00:24:40.369Z,11.10
2019-02-06T00:27:09.362Z,6.17
2019-02-06T00:29:38.822Z,7.43
2019-02-06T00:32:08.170Z,9.60
2019-02-06T00:34:37.462Z,9.93
2019-02-06T00:37:06.611Z,9.63
2019-02-06T00:39:35.962Z,10.53
2019-02-06T00:42:05.137Z,7.93
2019-02-06T00:44:34.430Z,7.43
2019-02-06T00:47:03.403Z,8.57
2019-02-06T00:49:32.341Z,7.80
2019-02-06T00:52:01.167Z,8.87
2019-02-06T00:54:30.094Z,9.90
2019-02-06T00:56:59.089Z,12.40
2019-02-06T00:59:28.070Z,6.70
2019-02-06T01:01:57.218Z,6.70
2019-02-06T01:04:26.337Z,6.20
2019-02-06T01:06:55.328Z,7.43
2019-02-06T01:09:24.409Z,7.30
2019-02-06T01:11:53.402Z,6.37
2019-02-06T01:14:22.452Z,6.97
2019-02-06T01:16:51.748Z,6.20
2019-02-06T01:19:21.178Z,4.13
2019-02-06T01:21:50.178Z,5.67
2019-02-06T01:24:19.186Z,7.90
2019-02-06T01:26:48.182Z,9.03
2019-02-06T01:29:17.198Z,8.27
2019-02-06T01:31:46.750Z,7.80
2019-02-06T01:34:15.598Z,6.90
2019-02-06T01:36:44.513Z,9.03
2019-02-06T01:39:13.786Z,7.27
2019-02-06T01:41:42.865Z,6.37
2019-02-06T01:44:11.870Z,11.33
2019-02-06T01:46:40.823Z,6.33
2019-02-06T01:49:09.989Z,6.10
2019-02-06T01:51:39.035Z,8.10
2019-02-06T01:54:07.981Z,5.90
2019-02-06T01:56:36.977Z,5.73
2019-02-06T01:59:05.973Z,7.80
2019-02-06T02:01:35.180Z,6.70
2019-02-06T02:04:05.078Z,9.63
2019-02-06T02:06:34.379Z,6.87
2019-02-06T02:09:06.755Z,6.97
2019-02-06T02:11:35.763Z,7.40
2019-02-06T02:14:05.233Z,6.13
2019-02-06T02:16:34.233Z,8.03
2019-02-06T02:19:03.843Z,6.73
2019-02-06T02:21:32.838Z,10.30
2019-02-06T02:24:01.866Z,7.30
2019-02-06T02:26:30.762Z,6.93
2019-02-06T02:29:00.083Z,7.23
2019-02-06T02:31:29.046Z,6.70
2019-02-06T02:33:59.694Z,6.23
2019-02-06T02:36:28.946Z,7.60
2019-02-06T02:38:58.170Z,5.80
2019-02-06T02:41:27.159Z,6.83
2019-02-06T02:43:56.150Z,7.23
2019-02-06T02:46:25.160Z,8.20
2019-02-06T02:48:54.288Z,6.77
2019-02-06T02:51:27.000Z,6.50
2019-02-06T02:53:56.023Z,6.73
2019-02-06T02:56:24.943Z,7.57
2019-02-06T02:58:53.864Z,6.37
2019-02-06T03:01:51.034Z,6.73
2019-02-06T03:04:27.565Z,5.80
2019-02-06T03:06:56.504Z,8.40
2019-02-06T03:09:25.517Z,9.20
2019-02-06T03:11:54.913Z,8.23
2019-02-06T03:14:24.284Z,10.40
2019-02-06T03:16:53.293Z,8.20
2019-02-06T03:19:22.281Z,7.70
2019-02-06T03:21:51.294Z,9.77
2019-02-06T03:24:20.353Z,6.93
2019-02-06T03:26:49.356Z,6.63
2019-02-06T03:29:18.762Z,7.70
2019-02-06T03:31:47.767Z,6.30
2019-02-06T03:34:16.750Z,10.60
2019-02-06T03:36:45.761Z,6.60
2019-02-06T03:39:14.769Z,7.30
2019-02-06T03:41:43.684Z,7.57
2019-02-06T03:44:12.811Z,8.20
2019-02-06T03:46:41.719Z,7.20
2019-02-06T03:49:10.785Z,7.47
2019-02-06T03:51:39.726Z,8.87
2019-02-06T03:54:08.722Z,10.80
2019-02-06T03:56:37.662Z,6.87
2019-02-06T03:59:07.040Z,6.07
2019-02-06T04:01:36.043Z,7.57
2019-02-06T04:04:05.149Z,12.93
2019-02-06T04:06:34.210Z,6.27
2019-02-06T04:09:04.742Z,7.10
2019-02-06T04:11:33.734Z,8.13
2019-02-06T04:14:03.349Z,7.80
2019-02-06T04:16:32.467Z,8.70
2019-02-06T04:19:01.382Z,13.23
2019-02-06T04:21:30.501Z,12.80
2019-02-06T04:23:59.481Z,9.77
2019-02-06T04:26:28.481Z,7.70
2019-02-06T04:28:57.493Z,9.03
2019-02-06T04:31:26.480Z,8.57
2019-02-06T04:33:55.757Z,7.80
2019-02-06T04:36:24.679Z,9.43
2019-02-06T04:38:53.605Z,12.30
2019-02-06T04:41:22.834Z,7.93
2019-02-06T04:43:51.935Z,10.70
2019-02-06T04:46:21.130Z,8.00
2019-02-06T04:48:50.053Z,15.60
2019-02-06T04:51:18.997Z,10.03
2019-02-06T04:53:48.445Z,7.37
2019-02-06T04:56:17.374Z,8.60
2019-02-06T04:58:46.370Z,7.67
2019-02-06T05:01:15.572Z,8.50
2019-02-06T05:03:44.569Z,9.47
2019-02-06T05:06:13.727Z,10.87
2019-02-06T05:08:42.573Z,11.27
2019-02-06T05:11:11.537Z,8.40
2019-02-06T05:13:40.593Z,19.33
2019-02-06T05:16:09.599Z,11.47
2019-02-06T05:18:38.590Z,4.73
2019-02-06T05:21:07.630Z,7.53
2019-02-06T05:23:36.483Z,8.53
2019-02-06T05:26:05.533Z,8.80
2019-02-06T05:28:34.404Z,9.00
2019-02-06T05:31:03.399Z,9.93
2019-02-06T05:33:32.693Z,20.00
2019-02-06T05:36:01.728Z,21.40
2019-02-06T05:38:30.709Z,9.60
2019-02-06T05:40:59.640Z,8.40
2019-02-06T05:43:28.633Z,12.60
2019-02-06T05:45:57.579Z,6.20
2019-02-06T05:48:26.616Z,6.80
2019-02-06T05:50:55.713Z,6.90
2019-02-06T05:53:24.646Z,14.03
2019-02-06T05:55:54.207Z,10.73
2019-02-06T05:58:23.144Z,8.50
2019-02-06T06:00:52.194Z,14.37
2019-02-06T06:03:21.212Z,12.83
2019-02-06T06:05:50.705Z,8.13
2019-02-06T06:08:19.630Z,8.60
2019-02-06T06:10:48.482Z,9.23
2019-02-06T06:13:18.519Z,20.70
2019-02-06T06:15:47.880Z,15.27
2019-02-06T06:18:16.890Z,10.87
2019-02-06T06:20:45.906Z,8.00
2019-02-06T06:23:14.843Z,21.60
2019-02-06T06:25:43.794Z,10.30
2019-02-06T06:28:12.801Z,7.30
2019-02-06T06:30:41.790Z,5.30
2019-02-06T06:33:10.794Z,11.50
2019-02-06T06:35:39.810Z,12.77
2019-02-06T06:38:09.382Z,18.33
2019-02-06T06:40:38.379Z,30.10
2019-02-06T06:43:07.435Z,29.30
2019-02-06T06:45:36.361Z,27.10
2019-02-06T06:48:05.688Z,17.40
2019-02-06T06:50:34.697Z,29.97
2019-02-06T06:53:03.981Z,33.30
2019-02-06T06:55:35.032Z,15.53
2019-02-06T06:58:03.739Z,9.60
2019-02-06T07:00:32.781Z,38.53
2019-02-06T07:03:01.745Z,11.50
2019-02-06T07:05:30.733Z,6.70
2019-02-06T07:08:09.119Z,8.23
2019-02-06T07:10:30.570Z,10.03
2019-02-06T07:12:59.585Z,11.63
2019-02-06T07:15:30.817Z,18.13
2019-02-06T07:17:59.916Z,19.30
2019-02-06T07:20:28.948Z,14.50
2019-02-06T07:22:58.376Z,9.93
2019-02-06T07:25:27.382Z,11.53
2019-02-06T07:27:56.727Z,8.90
2019-02-06T07:30:33.875Z,12.10
2019-02-06T07:33:02.950Z,10.63
2019-02-06T07:35:31.955Z,7.97
2019-02-06T07:38:01.298Z,8.90
2019-02-06T07:40:30.242Z,7.83
2019-02-06T07:42:59.242Z,7.50
2019-02-06T07:45:28.243Z,7.27
2019-02-06T07:47:57.267Z,6.97
2019-02-06T07:50:28.404Z,12.13
2019-02-06T07:52:57.677Z,9.30
2019-02-06T07:55:27.016Z,8.20
2019-02-06T07:57:56.310Z,6.20
2019-02-06T08:00:25.610Z,11.67
2019-02-06T08:02:55.134Z,14.03
2019-02-06T08:05:24.090Z,5.57
2019-02-06T08:07:53.657Z,15.63
2019-02-06T08:10:28.102Z,11.77
2019-02-06T08:12:57.095Z,13.50
2019-02-06T08:15:26.086Z,12.97
2019-02-06T08:17:55.097Z,10.53
2019-02-06T08:20:24.493Z,10.10
2019-02-06T08:22:53.978Z,9.83
2019-02-06T08:25:23.006Z,6.53
2019-02-06T08:27:52.004Z,5.90
2019-02-06T08:30:26.490Z,5.90
2019-02-06T08:32:55.496Z,9.40
2019-02-06T08:35:24.489Z,8.93
2019-02-06T08:37:54.014Z,11.13
2019-02-06T08:40:24.585Z,10.90
2019-02-06T08:42:53.885Z,6.03
2019-02-06T08:45:23.118Z,6.50
2019-02-06T08:47:52.114Z,9.80
2019-02-06T08:50:21.109Z,5.70
2019-02-06T08:52:50.957Z,6.20
2019-02-06T08:55:22.354Z,5.13
2019-02-06T08:57:51.543Z,5.33
2019-02-06T09:00:23.308Z,5.37
2019-02-06T09:02:52.302Z,6.67
2019-02-06T09:05:21.293Z,6.70
2019-02-06T09:07:50.593Z,6.30
2019-02-06T09:10:21.316Z,5.03
2019-02-06T09:12:51.005Z,4.30
2019-02-06T09:15:20.129Z,7.60
2019-02-06T09:17:49.135Z,11.70
2019-02-06T09:20:20.455Z,5.10
2019-02-06T09:22:49.457Z,4.50
2019-02-06T09:25:19.505Z,5.03
2019-02-06T09:27:48.866Z,7.73
2019-02-06T09:30:20.354Z,6.17
2019-02-06T09:32:49.353Z,8.90
2019-02-06T09:35:18.357Z,14.60
2019-02-06T09:37:47.385Z,5.47
2019-02-06T09:40:18.341Z,5.43
2019-02-06T09:42:47.329Z,3.90
2019-02-06T09:45:16.494Z,5.90
2019-02-06T09:47:45.593Z,5.90
2019-02-06T09:50:23.461Z,5.83
2019-02-06T09:52:52.462Z,6.90
2019-02-06T09:55:21.471Z,6.43
2019-02-06T09:57:50.566Z,7.97
2019-02-06T10:00:22.421Z,6.17
2019-02-06T10:02:51.710Z,9.40
2019-02-06T10:05:21.132Z,11.77
2019-02-06T10:07:50.133Z,10.37
2019-02-06T10:10:20.590Z,13.90
2019-02-06T10:12:49.629Z,16.20
2019-02-06T10:15:26.582Z,13.77
2019-02-06T10:17:56.724Z,11.17
2019-02-06T10:20:28.482Z,10.13
2019-02-06T10:22:57.485Z,11.47
2019-02-06T10:25:26.510Z,11.97
2019-02-06T10:27:55.642Z,41.53
2019-02-06T10:30:36.008Z,11.50
2019-02-06T10:33:05.323Z,8.40
2019-02-06T10:35:34.322Z,10.13
2019-02-06T10:38:03.701Z,11.27
2019-02-06T10:40:32.697Z,11.40
2019-02-06T10:43:01.797Z,12.23
2019-02-06T10:45:30.823Z,14.80
2019-02-06T10:48:00.002Z,10.10
2019-02-06T10:50:31.784Z,10.57
2019-02-06T10:53:01.359Z,13.50
2019-02-06T10:55:30.542Z,14.63
2019-02-06T10:57:59.774Z,12.10
2019-02-06T11:00:34.618Z,18.00
2019-02-06T11:03:03.642Z,14.33
2019-02-06T11:05:32.674Z,18.70
2019-02-06T11:08:01.704Z,16.27
2019-02-06T11:10:30.709Z,17.50
2019-02-06T11:12:59.795Z,20.80
2019-02-06T11:15:29.676Z,16.53
2019-02-06T11:17:58.527Z,22.97
2019-02-06T11:20:28.470Z,17.70
2019-02-06T11:22:57.478Z,18.93
2019-02-06T11:25:26.550Z,18.40
2019-02-06T11:27:55.867Z,22.53
2019-02-06T11:30:27.499Z,16.47
2019-02-06T11:32:56.514Z,18.23
2019-02-06T11:35:25.517Z,18.77
2019-02-06T11:37:54.640Z,24.80
2019-02-06T11:40:24.372Z,18.30
2019-02-06T11:42:53.693Z,23.27
2019-02-06T11:45:25.532Z,17.37
2019-02-06T11:47:54.532Z,19.70
2019-02-06T11:50:29.427Z,16.13
2019-02-06T11:52:58.353Z,17.20
2019-02-06T11:55:27.371Z,19.03
2019-02-06T11:57:56.390Z,20.03
2019-02-06T12:00:35.782Z,23.33
2019-02-06T12:03:05.722Z,23.07
2019-02-06T12:05:34.779Z,22.70
2019-02-06T12:08:04.021Z,20.73
2019-02-06T12:10:33.048Z,23.30
2019-02-06T12:13:02.392Z,24.00
2019-02-06T12:15:31.317Z,18.30
2019-02-06T12:18:00.678Z,20.90
2019-02-06T12:20:30.048Z,18.03
2019-02-06T12:22:59.090Z,19.17
2019-02-06T12:25:28.225Z,17.83
2019-02-06T12:27:57.304Z,17.57
2019-02-06T12:30:28.874Z,24.53
2019-02-06T12:32:57.916Z,23.73
2019-02-06T12:35:27.321Z,20.50
2019-02-06T12:37:56.913Z,18.57
2019-02-06T12:40:26.229Z,24.47
2019-02-06T12:42:55.320Z,21.40
2019-02-06T12:45:24.365Z,26.20
2019-02-06T12:47:53.867Z,21.27
2019-02-06T12:50:23.610Z,19.80
2019-02-06T12:52:52.618Z,19.90
2019-02-06T12:55:30.399Z,24.67
2019-02-06T12:57:59.514Z,27.23
2019-02-06T13:00:30.516Z,26.97
2019-02-06T13:03:00.221Z,26.13
2019-02-06T13:05:30.278Z,30.00
2019-02-06T13:07:59.302Z,24.37
2019-02-06T13:10:33.967Z,28.23
2019-02-06T13:12:59.508Z,26.43
2019-02-06T13:15:28.429Z,26.23
2019-02-06T13:17:57.678Z,29.00
2019-02-06T13:20:28.385Z,25.37
2019-02-06T13:22:57.406Z,28.77
2019-02-06T13:25:26.410Z,28.27
2019-02-06T13:27:55.330Z,27.47
2019-02-06T13:30:32.135Z,30.50
2019-02-06T13:33:01.138Z,29.47
2019-02-06T13:35:30.108Z,34.27
2019-02-06T13:37:59.120Z,28.03
2019-02-06T13:40:28.529Z,30.87
2019-02-06T13:42:57.961Z,28.33
2019-02-06T13:45:32.783Z,31.43
2019-02-06T13:48:01.772Z,29.67
2019-02-06T13:50:30.906Z,28.30
2019-02-06T13:52:59.942Z,27.53
2019-02-06T13:55:28.953Z,29.10
2019-02-06T13:57:58.079Z,25.97
2019-02-06T14:00:30.013Z,24.93
2019-02-06T14:02:59.322Z,26.03
2019-02-06T14:05:29.493Z,26.87
2019-02-06T14:08:00.765Z,24.37
2019-02-06T14:10:29.870Z,31.67
2019-02-06T14:12:59.099Z,35.23
2019-02-06T14:15:31.696Z,26.83
2019-02-06T14:18:00.705Z,29.03
2019-02-06T14:20:30.137Z,29.40
2019-02-06T14:23:02.181Z,30.93
2019-02-06T14:25:43.986Z,26.27
2019-02-06T14:28:32.130Z,29.37
2019-02-06T14:31:36.601Z,26.03
2019-02-06T14:34:28.709Z,30.00
2019-02-06T14:37:14.169Z,38.63
2019-02-06T14:39:52.199Z,27.80
2019-02-06T14:43:01.745Z,34.77
2019-02-06T14:46:19.985Z,34.27
2019-02-06T14:49:00.650Z,35.33
2019-02-06T14:51:58.146Z,34.20
2019-02-06T14:54:50.836Z,36.40
2019-02-06T14:58:10.010Z,39.07
2019-02-06T15:01:16.610Z,35.10
2019-02-06T15:04:25.734Z,44.97
2019-02-06T15:07:34.921Z,34.67
2019-02-06T15:10:44.521Z,24.87
2019-02-06T15:13:56.163Z,26.00
2019-02-06T15:16:47.083Z,27.37
2019-02-06T15:19:34.300Z,27.93
2019-02-06T15:22:56.826Z,21.40
2019-02-06T15:26:19.094Z,27.30
2019-02-06T15:29:10.990Z,23.70
2019-02-06T15:32:35.354Z,26.30
2019-02-06T15:35:32.716Z,22.10
2019-02-06T15:38:51.421Z,26.43
2019-02-06T15:41:44.353Z,27.20
2019-02-06T15:44:47.151Z,21.60
2019-02-06T15:47:44.985Z,24.97
2019-02-06T15:50:53.642Z,21.83
2019-02-06T15:53:54.054Z,25.00
2019-02-06T15:57:01.547Z,21.13
2019-02-06T16:00:02.805Z,17.43
2019-02-06T16:03:09.581Z,24.43
2019-02-06T16:06:42.211Z,19.60
2019-02-06T16:09:43.318Z,26.67
2019-02-06T16:12:50.910Z,23.10
2019-02-06T16:15:44.380Z,19.40
2019-02-06T16:18:41.173Z,24.27
2019-02-06T16:21:57.270Z,22.80
2019-02-06T16:24:42.446Z,25.00
2019-02-06T16:27:21.326Z,32.97
2019-02-06T16:30:19.006Z,51.07
2019-02-06T16:33:21.858Z,35.00
2019-02-06T16:36:27.653Z,43.27
2019-02-06T16:39:18.222Z,35.03
2019-02-06T16:42:17.987Z,37.03
2019-02-06T16:45:33.417Z,34.23
2019-02-06T16:48:16.160Z,25.83
2019-02-06T16:50:59.762Z,36.87
2019-02-06T16:54:04.840Z,28.23
2019-02-06T16:56:50.066Z,25.00
2019-02-06T16:59:42.529Z,32.70
2019-02-06T17:02:34.309Z,29.20
2019-02-06T17:05:30.963Z,28.00
2019-02-06T17:08:34.796Z,33.20
2019-02-06T17:11:22.638Z,30.90
2019-02-06T17:14:19.899Z,24.73
2019-02-06T17:17:23.493Z,25.77
2019-02-06T17:20:44.989Z,28.67
2019-02-06T17:24:05.631Z,31.60
2019-02-06T17:27:11.694Z,35.30
2019-02-06T17:29:58.618Z,33.60
2019-02-06T17:33:23.769Z,27.07
2019-02-06T17:36:19.457Z,23.23
2019-02-06T17:39:23.609Z,34.20
2019-02-06T17:41:52.536Z,35.03
2019-02-06T17:44:48.001Z,30.57
2019-02-06T17:47:43.110Z,28.10
2019-02-06T17:50:41.010Z,29.80
2019-02-06T17:53:29.189Z,25.77
2019-02-06T17:55:58.321Z,33.20
2019-02-06T17:58:30.617Z,32.33
2019-02-06T18:01:46.722Z,30.30
2019-02-06T18:04:18.789Z,27.30
2019-02-06T18:06:47.772Z,25.43
2019-02-06T18:09:18.497Z,25.50
2019-02-06T18:11:50.321Z,27.90
2019-02-06T18:14:19.487Z,27.97
2019-02-06T18:16:48.565Z,28.00
2019-02-06T18:19:17.483Z,23.57
2019-02-06T18:21:46.498Z,29.00
2019-02-06T18:24:15.517Z,31.63
2019-02-06T18:26:48.508Z,26.70
2019-02-06T18:29:17.529Z,27.23
2019-02-06T18:31:46.573Z,27.30
2019-02-06T18:34:15.580Z,30.30
2019-02-06T18:36:44.730Z,26.80
2019-02-06T18:39:15.049Z,27.23
2019-02-06T18:41:44.156Z,33.70
2019-02-06T18:44:13.174Z,31.33
2019-02-06T18:46:42.210Z,27.67
2019-02-06T18:49:11.329Z,26.70
2019-02-06T18:51:42.414Z,39.83
2019-02-06T18:54:11.775Z,36.77
2019-02-06T18:56:41.099Z,33.93
2019-02-06T18:59:10.464Z,29.30
2019-02-06T19:01:39.699Z,34.17
2019-02-06T19:04:14.726Z,38.40
2019-02-06T19:06:43.888Z,36.07
2019-02-06T19:09:14.796Z,51.10
2019-02-06T19:11:44.251Z,38.40
2019-02-06T19:14:13.802Z,35.07
2019-02-06T19:16:42.721Z,34.47
2019-02-06T19:19:12.038Z,34.90
2019-02-06T19:21:41.240Z,32.40
2019-02-06T19:24:10.646Z,35.00
2019-02-06T19:26:39.761Z,36.53
2019-02-06T19:29:08.781Z,31.47
2019-02-06T19:31:37.823Z,32.40
2019-02-06T19:34:07.297Z,23.30
2019-02-06T19:36:36.262Z,77.33
2019-02-06T19:39:11.600Z,49.93
2019-02-06T19:41:40.721Z,35.07
2019-02-06T19:44:11.441Z,47.07
2019-02-06T19:46:41.021Z,35.33
2019-02-06T19:49:10.306Z,46.50
2019-02-06T19:51:39.321Z,53.53
2019-02-06T19:54:08.311Z,54.43
2019-02-06T19:56:37.326Z,44.27
2019-02-06T19:59:06.448Z,41.30
2019-02-06T20:01:35.379Z,47.27
2019-02-06T20:04:05.482Z,27.73
2019-02-06T20:06:35.178Z,27.50
2019-02-06T20:09:09.050Z,29.47
2019-02-06T20:11:38.162Z,29.17
2019-02-06T20:14:07.186Z,39.50
2019-02-06T20:16:36.206Z,32.10
2019-02-06T20:19:05.921Z,26.67
2019-02-06T20:21:35.329Z,37.30
2019-02-06T20:24:05.561Z,31.37
2019-02-06T20:26:34.526Z,25.10
2019-02-06T20:29:05.925Z,25.27
2019-02-06T20:31:35.254Z,28.47
2019-02-06T20:34:04.274Z,27.30
2019-02-06T20:36:33.309Z,29.17
2019-02-06T20:39:02.731Z,23.43
2019-02-06T20:41:31.770Z,25.27
2019-02-06T20:44:00.651Z,23.73
2019-02-06T20:46:29.633Z,21.30
2019-02-06T20:48:58.578Z,24.70
2019-02-06T20:51:27.733Z,25.43
2019-02-06T20:53:56.695Z,21.20
2019-02-06T20:56:26.361Z,22.00
2019-02-06T20:58:55.287Z,20.30
2019-02-06T21:01:24.385Z,52.40
2019-02-06T21:03:53.394Z,29.97
2019-02-06T21:06:22.402Z,31.70
2019-02-06T21:08:51.334Z,26.63
2019-02-06T21:11:20.286Z,33.17
2019-02-06T21:13:49.497Z,70.83
2019-02-06T21:16:18.503Z,87.00
2019-02-06T21:18:47.444Z,103.07
2019-02-06T21:21:16.366Z,62.53
2019-02-06T21:23:45.467Z,85.67
2019-02-06T21:26:14.558Z,43.27
2019-02-06T21:28:43.789Z,29.67
2019-02-06T21:31:12.795Z,72.77
2019-02-06T21:33:41.797Z,50.20
2019-02-06T21:36:10.825Z,50.33
2019-02-06T21:38:39.894Z,116.73
2019-02-06T21:41:08.946Z,50.37
2019-02-06T21:43:44.282Z,48.43
2019-02-06T21:46:08.674Z,27.37
2019-02-06T21:48:37.798Z,18.13
2019-02-06T21:51:06.902Z,25.20
2019-02-06T21:53:35.835Z,18.73
2019-02-06T21:56:05.266Z,23.10
2019-02-06T21:58:34.263Z,23.70
2019-02-06T22:01:03.323Z,22.50
2019-02-06T22:03:32.273Z,18.20
2019-02-06T22:06:01.196Z,20.27
2019-02-06T22:08:30.210Z,16.53
2019-02-06T22:10:59.217Z,18.47
2019-02-06T22:13:28.148Z,15.53
2019-02-06T22:15:57.146Z,20.20
2019-02-06T22:18:26.534Z,14.23
2019-02-06T22:20:55.529Z,14.53
2019-02-06T22:23:24.609Z,14.87
2019-02-06T22:25:53.723Z,15.33
2019-02-06T22:28:22.750Z,18.33
2019-02-06T22:30:52.183Z,17.53
2019-02-06T22:33:22.056Z,16.20
2019-02-06T22:35:51.478Z,18.20
2019-02-06T22:38:20.403Z,17.57
2019-02-06T22:40:49.422Z,18.50
2019-02-06T22:43:18.998Z,17.83
2019-02-06T22:45:48.089Z,14.20
2019-02-06T22:48:17.122Z,16.10
2019-02-06T22:50:46.051Z,14.93
2019-02-06T22:53:15.045Z,15.10
2019-02-06T22:55:44.061Z,11.53
2019-02-06T22:58:13.086Z,12.43
2019-02-06T23:01:05.312Z,15.23
2019-02-06T23:03:42.911Z,15.53
2019-02-06T23:06:12.593Z,15.20
2019-02-06T23:08:41.858Z,14.47
2019-02-06T23:11:11.104Z,16.77
2019-02-06T23:13:40.120Z,16.70
2019-02-06T23:16:09.434Z,15.53
2019-02-06T23:18:38.439Z,18.10
2019-02-06T23:21:07.894Z,14.47
2019-02-06T23:23:37.503Z,10.83
2019-02-06T23:26:06.522Z,12.03
2019-02-06T23:28:35.547Z,18.10
2019-02-06T23:31:04.541Z,12.90
2019-02-06T23:33:33.537Z,13.60
2019-02-06T23:36:03.246Z,13.63
2019-02-06T23:38:32.618Z,13.80
2019-02-06T23:41:01.547Z,10.50
2019-02-06T23:43:30.494Z,12.70
2019-02-06T23:45:59.431Z,12.37
2019-02-06T23:48:28.363Z,12.43
2019-02-06T23:50:57.380Z,10.00
2019-02-06T23:53:26.758Z,14.00
2019-02-06T23:55:56.038Z,10.53
2019-02-06T23:58:24.990Z,16.10
